createdAt,value
2022-07-29T00:03:41.269Z,4.30
2022-07-29T00:08:49.952Z,3.67
2022-07-29T00:14:00.533Z,5.10
2022-07-29T00:19:08.546Z,7.22
2022-07-29T00:24:17.261Z,6.65
2022-07-29T00:29:33.971Z,7.60
2022-07-29T00:34:59.333Z,5.93
2022-07-29T00:40:34.517Z,6.20
2022-07-29T00:45:41.237Z,6.05
2022-07-29T00:50:48.077Z,6.53
2022-07-29T00:55:57.854Z,5.82
2022-07-29T01:01:04.805Z,4.35
2022-07-29T01:06:12.550Z,2.30
2022-07-29T01:11:45.889Z,2.03
2022-07-29T01:17:04.135Z,2.90
2022-07-29T01:22:30.713Z,3.17
2022-07-29T01:28:29.614Z,3.00
2022-07-29T01:33:51.971Z,2.47
2022-07-29T01:39:09.076Z,4.00
2022-07-29T01:44:29.687Z,3.70
2022-07-29T01:50:10.253Z,3.13
2022-07-29T01:55:45.045Z,4.90
2022-07-29T02:01:18.600Z,3.92
2022-07-29T02:06:53.776Z,5.03
2022-07-29T02:12:28.165Z,3.67
2022-07-29T02:17:57.967Z,3.72
2022-07-29T02:23:07.338Z,5.22
2022-07-29T02:28:39.200Z,5.70
2022-07-29T02:34:15.281Z,3.13
2022-07-29T02:39:30.277Z,3.15
2022-07-29T02:44:42.400Z,2.95
2022-07-29T02:49:56.767Z,2.67
2022-07-29T02:55:33.575Z,2.80
2022-07-29T03:00:47.515Z,1.70
2022-07-29T03:05:59.620Z,2.03
2022-07-29T03:11:10.066Z,1.45
2022-07-29T03:16:18.361Z,1.98
2022-07-29T03:21:54.085Z,1.30
2022-07-29T03:27:27.573Z,1.40
2022-07-29T03:32:59.394Z,1.00
2022-07-29T03:38:32.489Z,1.30
2022-07-29T03:44:07.111Z,1.50
2022-07-29T03:49:17.172Z,3.63
2022-07-29T03:54:24.535Z,2.40
2022-07-29T03:59:36.409Z,7.90
2022-07-29T04:04:43.295Z,8.02
2022-07-29T04:09:50.415Z,10.30
2022-07-29T04:14:58.656Z,10.90
2022-07-29T04:20:30.523Z,11.07
2022-07-29T04:26:02.594Z,1.23
2022-07-29T04:31:11.840Z,1.33
2022-07-29T04:36:28.759Z,1.77
2022-07-29T04:41:36.387Z,1.58
2022-07-29T04:46:44.505Z,1.00
2022-07-29T04:51:51.495Z,1.00
2022-07-29T04:56:58.092Z,1.40
2022-07-29T05:02:30.727Z,1.00
2022-07-29T05:08:02.682Z,1.02
2022-07-29T05:13:13.987Z,0.70
2022-07-29T05:18:26.004Z,0.70
2022-07-29T05:23:33.162Z,0.50
2022-07-29T05:29:06.369Z,1.25
2022-07-29T05:34:20.353Z,0.70
2022-07-29T05:39:47.104Z,1.95
2022-07-29T05:44:54.004Z,0.90
2022-07-29T05:50:30.057Z,0.82
2022-07-29T05:55:41.371Z,0.50
2022-07-29T06:01:40.801Z,0.55
2022-07-29T06:06:53.124Z,0.88
2022-07-29T06:12:00.383Z,0.60
2022-07-29T06:17:08.011Z,0.50
2022-07-29T06:22:40.642Z,0.30
2022-07-29T06:27:53.623Z,0.40
2022-07-29T06:33:06.896Z,0.50
2022-07-29T06:38:40.615Z,0.30
2022-07-29T06:44:16.602Z,0.40
2022-07-29T06:49:24.983Z,0.40
2022-07-29T06:54:33.424Z,0.30
2022-07-29T06:59:40.546Z,0.77
2022-07-29T07:04:53.587Z,0.50
2022-07-29T07:10:01.819Z,0.25
2022-07-29T07:15:10.436Z,0.38
2022-07-29T07:20:44.296Z,0.50
2022-07-29T07:25:56.677Z,0.55
2022-07-29T07:31:04.299Z,0.45
2022-07-29T07:36:15.903Z,0.40
2022-07-29T07:41:50.040Z,0.63
2022-07-29T07:46:57.140Z,0.50
2022-07-29T07:52:36.521Z,0.45
2022-07-29T07:57:45.545Z,0.40
2022-07-29T08:07:59.296Z,0.40
2022-07-29T08:13:13.679Z,0.30
2022-07-29T08:18:20.516Z,0.60
2022-07-29T08:24:00.781Z,0.30
2022-07-29T08:29:12.153Z,0.40
2022-07-29T08:34:43.841Z,0.52
2022-07-29T08:40:16.202Z,0.30
2022-07-29T08:45:26.125Z,0.52
2022-07-29T08:50:33.276Z,0.43
2022-07-29T08:55:42.414Z,0.50
2022-07-29T09:00:55.903Z,0.40
2022-07-29T09:06:29.398Z,0.50
2022-07-29T09:12:01.897Z,0.50
2022-07-29T09:17:12.085Z,0.40
2022-07-29T09:22:37.662Z,1.05
2022-07-29T09:27:53.549Z,0.50
2022-07-29T09:33:04.417Z,0.40
2022-07-29T09:38:15.064Z,0.55
2022-07-29T09:43:57.093Z,0.50
2022-07-29T09:49:13.930Z,2.67
2022-07-29T09:54:28.995Z,1.90
2022-07-29T09:59:36.389Z,1.50
2022-07-29T10:04:59.456Z,1.92
2022-07-29T10:10:08.814Z,2.40
2022-07-29T10:15:20.444Z,0.63
2022-07-29T10:20:30.606Z,0.82
2022-07-29T10:26:02.365Z,0.90
2022-07-29T10:31:46.763Z,0.60
2022-07-29T10:37:08.770Z,0.60
2022-07-29T10:42:29.647Z,0.40
2022-07-29T10:47:40.783Z,0.43
2022-07-29T10:53:14.523Z,0.52
2022-07-29T10:58:26.931Z,0.40
2022-07-29T11:03:52.470Z,0.77
2022-07-29T11:15:02.848Z,0.65
2022-07-29T11:20:38.116Z,1.13
2022-07-29T11:25:50.662Z,0.30
2022-07-29T11:31:14.862Z,0.60
2022-07-29T11:37:31.121Z,0.45
2022-07-29T11:43:07.283Z,1.10
2022-07-29T11:48:39.152Z,3.40
2022-07-29T11:53:52.454Z,0.63
2022-07-29T11:59:10.746Z,0.40
2022-07-29T12:04:22.243Z,0.32
2022-07-29T12:09:56.980Z,0.30
2022-07-29T12:15:21.481Z,0.50
2022-07-29T12:21:03.190Z,0.68
2022-07-29T12:26:25.534Z,0.60
2022-07-29T12:32:00.604Z,0.70
2022-07-29T12:37:14.801Z,6.53
2022-07-29T12:42:22.512Z,0.40
2022-07-29T12:53:15.102Z,0.80
2022-07-29T12:58:33.863Z,0.30
2022-07-29T13:03:56.767Z,0.52
2022-07-29T13:09:40.082Z,1.08
2022-07-29T13:15:20.578Z,2.10
2022-07-29T13:20:53.102Z,0.95
2022-07-29T13:26:09.464Z,0.90
2022-07-29T13:31:19.109Z,0.70
2022-07-29T13:36:28.286Z,0.30
2022-07-29T13:42:00.816Z,0.75
2022-07-29T13:47:09.871Z,1.25
2022-07-29T13:52:18.509Z,0.70
2022-07-29T13:57:25.232Z,0.82
2022-07-29T14:02:32.252Z,3.45
2022-07-29T14:07:41.449Z,2.70
2022-07-29T14:13:24.642Z,4.03
2022-07-29T14:18:33.472Z,1.05
2022-07-29T14:23:45.615Z,0.67
2022-07-29T14:28:52.737Z,0.60
2022-07-29T14:34:02.859Z,0.47
2022-07-29T14:39:18.333Z,0.65
2022-07-29T14:44:25.754Z,0.52
2022-07-29T14:49:32.743Z,0.53
2022-07-29T14:54:41.178Z,0.50
2022-07-29T15:05:19.446Z,0.85
2022-07-29T15:10:52.548Z,0.43
2022-07-29T15:16:00.334Z,1.02
2022-07-29T15:21:08.660Z,0.43
2022-07-29T15:32:15.462Z,0.60
2022-07-29T15:37:22.675Z,0.45
2022-07-29T15:42:31.249Z,0.40
2022-07-29T15:53:35.321Z,0.25
2022-07-29T15:58:43.831Z,0.50
2022-07-29T16:09:02.438Z,0.50
2022-07-29T16:14:35.892Z,0.47
2022-07-29T16:19:44.958Z,0.40
2022-07-29T16:24:54.254Z,0.65
2022-07-29T16:30:02.852Z,0.60
2022-07-29T16:35:11.600Z,0.52
2022-07-29T16:40:18.605Z,0.30
2022-07-29T16:45:28.762Z,0.50
2022-07-29T16:50:52.764Z,0.80
2022-07-29T16:56:24.263Z,0.40
2022-07-29T17:01:32.491Z,0.50
2022-07-29T17:06:42.831Z,1.58
2022-07-29T17:11:54.978Z,1.42
2022-07-29T17:17:39.498Z,1.50
2022-07-29T17:22:56.577Z,1.05
2022-07-29T17:28:03.780Z,0.98
2022-07-29T17:33:12.923Z,0.80
2022-07-29T17:39:11.743Z,0.40
2022-07-29T17:44:19.441Z,0.40
2022-07-29T17:49:28.588Z,0.47
2022-07-29T17:54:35.590Z,0.40
2022-07-29T17:59:46.329Z,0.47
2022-07-29T18:04:55.098Z,0.50
2022-07-29T18:10:02.384Z,0.88
2022-07-29T18:15:35.408Z,0.65
2022-07-29T18:21:12.203Z,0.70
2022-07-29T18:26:19.603Z,0.50
2022-07-29T18:31:26.650Z,0.82
2022-07-29T18:36:34.935Z,0.70
2022-07-29T18:42:06.918Z,0.70
2022-07-29T18:47:13.902Z,0.90
2022-07-29T18:52:22.941Z,1.00
2022-07-29T18:57:53.637Z,3.78
2022-07-29T19:02:57.190Z,4.20
2022-07-29T19:08:08.629Z,7.55
2022-07-29T19:13:15.617Z,29.77
2022-07-29T19:18:47.712Z,20.75
2022-07-29T19:24:01.875Z,17.85
2022-07-29T19:29:39.788Z,9.32
2022-07-29T19:35:09.427Z,8.32
2022-07-29T19:40:42.605Z,5.18
2022-07-29T19:45:49.735Z,3.53
2022-07-29T19:50:59.288Z,4.22
2022-07-29T19:56:08.878Z,6.78
2022-07-29T20:01:17.115Z,4.70
2022-07-29T20:06:25.374Z,9.02
2022-07-29T20:11:40.155Z,4.30
2022-07-29T20:16:50.734Z,3.67
2022-07-29T20:22:23.030Z,7.40
2022-07-29T20:27:56.226Z,2.08
2022-07-29T20:33:06.068Z,1.52
2022-07-29T20:38:16.384Z,1.38
2022-07-29T20:43:27.543Z,1.20
2022-07-29T20:48:58.848Z,1.10
2022-07-29T20:54:06.332Z,1.05
2022-07-29T20:59:44.063Z,0.80
2022-07-29T21:05:17.755Z,0.57
2022-07-29T21:10:50.155Z,0.70
2022-07-29T21:16:03.434Z,0.70
2022-07-29T21:21:14.069Z,1.08
2022-07-29T21:26:21.401Z,0.88
2022-07-29T21:31:30.954Z,0.70
2022-07-29T21:36:53.206Z,1.05
2022-07-29T21:42:00.006Z,1.17
2022-07-29T21:47:10.046Z,0.68
2022-07-29T21:52:17.146Z,0.60
2022-07-29T21:57:26.967Z,0.50
2022-07-29T22:02:36.362Z,0.93
2022-07-29T22:07:55.288Z,0.90
2022-07-29T22:13:05.021Z,0.90
2022-07-29T22:18:13.760Z,0.65
2022-07-29T22:23:53.101Z,0.57
2022-07-29T22:29:00.588Z,0.40
2022-07-29T22:34:13.512Z,0.77
2022-07-29T22:39:20.205Z,0.57
2022-07-29T22:44:27.112Z,0.52
2022-07-29T22:49:35.396Z,0.40
2022-07-29T22:54:42.592Z,0.73
2022-07-29T23:00:15.364Z,0.60
2022-07-29T23:05:48.226Z,0.60
2022-07-29T23:11:20.490Z,0.35
2022-07-29T23:16:33.493Z,0.57
2022-07-29T23:21:42.424Z,0.70
2022-07-29T23:26:49.185Z,0.43
2022-07-29T23:32:23.047Z,0.52
2022-07-29T23:37:34.425Z,0.60
2022-07-29T23:42:42.544Z,0.60
2022-07-29T23:48:15.003Z,0.50
2022-07-29T23:53:23.355Z,0.60
2022-07-29T23:58:36.507Z,0.60
